Celje, Slovenia
Current Conditions -  °F | °C
As of 8:00 PM on Monday 20 Oct 2014 (Local Time) from LJCE Reporting Station
Clear Clear  
Wind Chill: 64°   Ceiling: Unl
Heat Index: 64°   Visibility: 6mi
Dew Point: 57°   Wind: 8mph
Humidity: 77%   Direction: 250°WSW
Pressure: 30.03"   Gusts: NA
Location:  46.24°N, 15.27°E
Report Text: LJCE 201800Z 25007KT CAVOK 18/14 Q1017 RMK BLU
Loading
Personal Weather Stations






























Interactive Weather Map
Tropical Storm Tracking
New forecast layout! Learn more

10-Day Weather Forecast

Advertisements
Track Severe Weather on mobile